Time;durP1;ratioP1;P1;durP2;ratioP2;P2;SDS_P1;SDS_P2;PMS_P1;PMS_P2;Temp;Humidity;BMP_temperature;BMP_pressure;BME280_temperature;BME280_humidity;BME280_pressure;Samples;Min_cycle;Max_cycle;Signal;HPM_P1;HPM_P2
2021/11/17 02:29:47;;;;;;;1.75;1.48;;;22.50;61.00;;;;;;31619398;28;20063;-43
2021/11/17 02:45:08;;;;;;;1.43;1.30;;;22.50;61.00;;;;;;31619171;28;20037;-43
2021/11/17 03:00:37;;;;;;;1.40;1.30;;;22.40;61.00;;;;;;31618087;28;20052;-41
2021/11/17 03:16:17;;;;;;;2.50;1.45;;;22.40;61.00;;;;;;31616676;28;20070;-41
2021/11/17 03:31:43;;;;;;;1.63;1.15;;;22.40;61.00;;;;;;31638936;28;20052;-41
2021/11/17 03:47:01;;;;;;;2.65;1.40;;;22.40;61.20;;;;;;31637495;28;20044;-41
2021/11/17 04:02:21;;;;;;;1.50;1.20;;;22.50;61.50;;;;;;31635248;28;20056;-40
2021/11/17 04:17:34;;;;;;;2.03;1.15;;;23.00;60.90;;;;;;31580793;28;20045;-41
2021/11/17 04:32:55;;;;;;;0.90;0.82;;;23.10;60.50;;;;;;31631301;28;20139;-42
2021/11/17 04:48:45;;;;;;;0.90;0.88;;;22.90;60.70;;;;;;31631263;28;20041;-40
2021/11/17 05:04:02;;;;;;;0.90;0.90;;;22.90;60.70;;;;;;31597419;28;20111;-38
2021/11/17 05:19:16;;;;;;;6.78;2.08;;;22.80;60.60;;;;;;31624731;28;20044;-44
2021/11/17 05:34:27;;;;;;;4.90;2.60;;;22.60;60.10;;;;;;31625160;28;20052;-43
2021/11/17 05:49:37;;;;;;;8.27;2.97;;;22.40;60.60;;;;;;31619922;28;20068;-42
2021/11/17 06:04:39;;;;;;;9.27;3.30;;;22.30;60.80;;;;;;31622866;28;20040;-42
2021/11/17 06:19:45;;;;;;;10.65;3.83;;;22.40;60.70;;;;;;31606503;28;20087;-41
2021/11/17 06:34:50;;;;;;;28.65;18.70;;;22.50;56.00;;;;;;31617690;28;20053;-42
2021/11/17 06:49:53;;;;;;;33.33;21.77;;;22.50;54.60;;;;;;31619005;28;20048;-45
2021/11/17 07:04:55;;;;;;;22.42;13.65;;;22.50;53.50;;;;;;31646259;28;20045;-47
2021/11/17 07:19:57;;;;;;;70.28;53.35;;;22.20;47.70;;;;;;31642226;28;20064;-41
2021/11/17 07:34:59;;;;;;;49.90;34.88;;;21.90;47.20;;;;;;31637688;28;20544;-42
2021/11/17 07:50:05;;;;;;;52.45;39.53;;;22.30;50.90;;;;;;31638106;28;20053;-44
2021/11/17 08:05:09;;;;;;;46.90;34.45;;;22.40;49.50;;;;;;31635556;28;20045;-43
2021/11/17 08:20:14;;;;;;;40.03;26.40;;;22.50;48.80;;;;;;31637038;28;20092;-36
2021/11/17 08:35:20;;;;;;;40.33;23.17;;;22.40;47.90;;;;;;31634643;28;20072;-45
2021/11/17 08:50:26;;;;;;;36.08;22.48;;;22.50;49.60;;;;;;31631891;28;20041;-50
2021/11/17 09:05:32;;;;;;;39.08;22.55;;;22.50;50.30;;;;;;31635178;28;20040;-46
2021/11/17 09:20:35;;;;;;;40.30;25.50;;;22.40;52.00;;;;;;31631306;28;20044;-41
2021/11/17 09:35:38;;;;;;;55.45;30.73;;;22.40;52.70;;;;;;31592195;28;20056;-44
2021/11/17 09:50:55;;;;;;;48.42;29.85;;;22.40;53.60;;;;;;31497603;28;20064;-46
2021/11/17 10:21:22;;;;;;;33.22;21.35;;;22.70;53.60;;;;;;31496652;28;20052;-44
2021/11/17 10:36:43;;;;;;;31.02;20.55;;;22.70;53.80;;;;;;31494858;28;20125;-44
2021/11/17 10:52:12;;;;;;;22.75;13.35;;;22.60;54.10;;;;;;31492246;28;20375;-47
2021/11/17 11:07:43;;;;;;;18.27;11.45;;;22.40;51.30;;;;;;31486612;28;20564;-44
2021/11/17 11:23:04;;;;;;;19.95;10.45;;;22.30;49.40;;;;;;31487638;28;20060;-46
2021/11/17 11:38:07;;;;;;;13.93;7.90;;;22.10;47.60;;;;;;31485031;28;20061;-43
2021/11/17 11:53:39;;;;;;;18.15;6.85;;;22.30;49.00;;;;;;31504950;28;20040;-44
2021/11/17 12:08:50;;;;;;;;;;;22.50;48.70;;;;;;31248102;28;9999755;-38
2021/11/17 12:24:07;;;;;;;8.25;5.40;;;22.40;50.10;;;;;;31638315;28;19983;-37
2021/11/17 12:39:16;;;;;;;9.38;5.45;;;22.30;48.80;;;;;;31636565;28;20055;-36
2021/11/17 12:54:26;;;;;;;13.27;4.83;;;22.20;46.20;;;;;;31634471;28;20045;-37
2021/11/17 13:09:30;;;;;;;9.70;4.93;;;22.20;48.30;;;;;;31632194;28;20078;-37
2021/11/17 13:24:42;;;;;;;8.77;4.85;;;22.50;48.10;;;;;;31630155;28;20052;-36
2021/11/17 13:39:45;;;;;;;7.57;4.40;;;22.40;48.60;;;;;;31628924;28;20132;-38
2021/11/17 13:54:47;;;;;;;9.10;4.70;;;22.30;48.60;;;;;;31627596;28;20055;-39
2021/11/17 14:09:50;;;;;;;11.52;4.57;;;22.10;45.80;;;;;;31624435;28;20055;-38
2021/11/17 14:24:56;;;;;;;7.68;3.95;;;22.10;45.90;;;;;;31624586;28;20075;-37
2021/11/17 14:39:58;;;;;;;8.55;3.95;;;22.40;46.30;;;;;;31622686;28;20057;-38
2021/11/17 14:55:04;;;;;;;27.88;20.98;;;22.40;46.10;;;;;;31620484;28;20139;-36
2021/11/17 15:10:10;;;;;;;29.88;21.40;;;22.50;46.80;;;;;;31617569;28;20041;-37
2021/11/17 15:25:16;;;;;;;32.63;21.58;;;22.40;47.60;;;;;;31637812;28;20048;-34
2021/11/17 15:40:21;;;;;;;38.17;22.88;;;22.40;48.10;;;;;;31641769;28;20064;-36
2021/11/17 15:55:24;;;;;;;28.98;18.70;;;22.40;48.70;;;;;;31634666;28;20051;-37
2021/11/17 16:10:29;;;;;;;31.33;17.10;;;22.20;49.40;;;;;;31630383;28;20049;-35
2021/11/17 16:45:39;;;;;;;25.80;14.02;;;22.20;49.70;;;;;;31597381;27;20715;-70
2021/11/17 17:00:52;;;;;;;19.40;13.48;;;23.00;50.40;;;;;;31162720;23;10001668;-45
2021/11/17 17:15:55;;;;;;;20.15;13.15;;;23.00;50.80;;;;;;31552648;28;20045;-38
2021/11/17 17:31:00;;;;;;;17.88;12.80;;;23.00;51.10;;;;;;31477241;28;20073;-37
2021/11/17 17:46:04;;;;;;;19.17;12.52;;;22.90;51.40;;;;;;31457102;28;20724;-42
2021/11/17 18:01:07;;;;;;;17.95;11.75;;;22.60;51.50;;;;;;31567010;28;20087;-46
2021/11/17 18:16:10;;;;;;;21.63;11.25;;;22.30;52.30;;;;;;31543563;28;20039;-52
2021/11/17 18:31:13;;;;;;;18.45;10.00;;;22.30;51.90;;;;;;31547034;28;20083;-41
2021/11/17 18:46:15;;;;;;;40.25;12.27;;;22.40;51.90;;;;;;31565256;28;20066;-44
2021/11/17 19:01:28;;;;;;;20.70;9.90;;;22.40;52.20;;;;;;31570548;28;20040;-43
2021/11/17 19:16:31;;;;;;;17.88;10.23;;;22.40;52.40;;;;;;31618951;28;20119;-44
2021/11/17 19:31:33;;;;;;;13.52;9.32;;;22.30;52.80;;;;;;31620776;28;20041;-52
2021/11/17 19:46:35;;;;;;;23.48;11.25;;;22.30;52.80;;;;;;31612876;28;20042;-54
2021/11/17 20:01:38;;;;;;;38.70;12.10;;;22.30;54.20;;;;;;31543731;28;20117;-45
2021/11/17 20:16:41;;;;;;;25.33;12.52;;;22.20;55.30;;;;;;31527262;28;20041;-53
2021/11/17 20:31:43;;;;;;;23.55;10.20;;;23.40;54.60;;;;;;31590134;28;20055;-53
2021/11/17 20:46:45;;;;;;;21.85;10.32;;;22.60;56.60;;;;;;31612194;28;20062;-48
2021/11/17 21:01:53;;;;;;;17.27;8.85;;;22.30;56.20;;;;;;31535954;28;20056;-46
2021/11/17 21:16:55;;;;;;;40.17;23.88;;;22.30;56.00;;;;;;31500562;28;20115;-42
2021/11/17 21:31:58;;;;;;;30.10;20.15;;;22.40;55.60;;;;;;31509427;28;20068;-47
2021/11/17 21:47:00;;;;;;;27.08;18.77;;;22.50;55.70;;;;;;31503116;28;20040;-41
2021/11/17 22:02:05;;;;;;;21.77;16.08;;;22.60;55.80;;;;;;31505185;28;20139;-40
2021/11/17 22:17:07;;;;;;;20.75;15.13;;;22.60;55.80;;;;;;31503693;28;20078;-46
2021/11/17 22:32:09;;;;;;;18.77;14.48;;;22.60;55.90;;;;;;31505032;28;20052;-42
2021/11/17 22:47:11;;;;;;;19.63;13.52;;;22.70;56.00;;;;;;31499371;28;20045;-38
2021/11/17 23:02:14;;;;;;;19.25;11.95;;;22.70;56.00;;;;;;31494181;28;20052;-37
2021/11/17 23:17:16;;;;;;;16.50;12.23;;;22.70;56.00;;;;;;31500641;28;20052;-36
2021/11/17 23:32:18;;;;;;;14.05;10.20;;;22.70;56.10;;;;;;31498755;28;20052;-43
2021/11/17 23:47:20;;;;;;;14.02;9.57;;;22.10;56.40;;;;;;31493713;28;20049;-40
